sensor_id;sensor_type;location;lat;lon;timestamp;temperature;humidity
76168;DHT22;64927;48.214;16.378;2023-04-24T00:01:49;17.30;56.30
76168;DHT22;64927;48.214;16.378;2023-04-24T00:04:15;17.40;56.10
76168;DHT22;64927;48.214;16.378;2023-04-24T00:06:43;17.40;56.10
76168;DHT22;64927;48.214;16.378;2023-04-24T00:09:12;17.40;56.00
76168;DHT22;64927;48.214;16.378;2023-04-24T00:11:38;17.40;55.90
76168;DHT22;64927;48.214;16.378;2023-04-24T00:14:03;17.30;55.80
76168;DHT22;64927;48.214;16.378;2023-04-24T00:16:32;17.40;55.70
76168;DHT22;64927;48.214;16.378;2023-04-24T00:19:00;17.40;55.40
76168;DHT22;64927;48.214;16.378;2023-04-24T00:21:28;17.50;55.20
76168;DHT22;64927;48.214;16.378;2023-04-24T00:24:00;17.50;55.10
76168;DHT22;64927;48.214;16.378;2023-04-24T00:26:26;17.50;54.70
76168;DHT22;64927;48.214;16.378;2023-04-24T00:28:51;17.50;54.70
76168;DHT22;64927;48.214;16.378;2023-04-24T00:31:17;17.50;54.50
76168;DHT22;64927;48.214;16.378;2023-04-24T00:33:46;17.50;54.30
76168;DHT22;64927;48.214;16.378;2023-04-24T00:36:11;17.60;54.30
76168;DHT22;64927;48.214;16.378;2023-04-24T00:38:37;17.50;54.20
76168;DHT22;64927;48.214;16.378;2023-04-24T00:41:03;17.50;54.30
76168;DHT22;64927;48.214;16.378;2023-04-24T00:43:28;17.50;54.20
76168;DHT22;64927;48.214;16.378;2023-04-24T00:45:54;17.50;54.10
76168;DHT22;64927;48.214;16.378;2023-04-24T00:48:20;17.50;54.20
76168;DHT22;64927;48.214;16.378;2023-04-24T00:50:48;17.50;54.20
76168;DHT22;64927;48.214;16.378;2023-04-24T00:53:14;17.50;54.10
76168;DHT22;64927;48.214;16.378;2023-04-24T00:55:43;17.50;54.20
76168;DHT22;64927;48.214;16.378;2023-04-24T00:58:09;17.50;54.20
76168;DHT22;64927;48.214;16.378;2023-04-24T01:00:35;17.60;54.00
76168;DHT22;64927;48.214;16.378;2023-04-24T01:03:01;17.60;54.00
76168;DHT22;64927;48.214;16.378;2023-04-24T01:05:29;17.40;54.10
76168;DHT22;64927;48.214;16.378;2023-04-24T01:07:55;17.50;54.10
76168;DHT22;64927;48.214;16.378;2023-04-24T01:10:21;17.50;54.10
76168;DHT22;64927;48.214;16.378;2023-04-24T01:12:48;17.50;54.10
76168;DHT22;64927;48.214;16.378;2023-04-24T01:15:14;17.50;54.10
76168;DHT22;64927;48.214;16.378;2023-04-24T01:17:42;17.40;54.20
76168;DHT22;64927;48.214;16.378;2023-04-24T01:20:08;17.40;54.30
76168;DHT22;64927;48.214;16.378;2023-04-24T01:22:34;17.30;54.70
76168;DHT22;64927;48.214;16.378;2023-04-24T01:25:00;17.30;54.60
76168;DHT22;64927;48.214;16.378;2023-04-24T01:27:26;17.20;54.60
76168;DHT22;64927;48.214;16.378;2023-04-24T01:29:52;17.20;54.90
76168;DHT22;64927;48.214;16.378;2023-04-24T01:32:19;17.20;54.90
76168;DHT22;64927;48.214;16.378;2023-04-24T01:34:45;17.20;54.90
76168;DHT22;64927;48.214;16.378;2023-04-24T01:37:11;17.10;55.00
76168;DHT22;64927;48.214;16.378;2023-04-24T01:39:40;17.00;56.40
76168;DHT22;64927;48.214;16.378;2023-04-24T01:42:05;17.00;55.50
76168;DHT22;64927;48.214;16.378;2023-04-24T01:44:35;16.90;55.40
76168;DHT22;64927;48.214;16.378;2023-04-24T01:47:03;16.80;56.10
76168;DHT22;64927;48.214;16.378;2023-04-24T01:49:29;16.70;56.10
76168;DHT22;64927;48.214;16.378;2023-04-24T01:51:57;16.80;56.50
76168;DHT22;64927;48.214;16.378;2023-04-24T01:54:22;16.80;56.60
76168;DHT22;64927;48.214;16.378;2023-04-24T01:56:48;16.80;56.80
76168;DHT22;64927;48.214;16.378;2023-04-24T01:59:17;16.80;56.90
76168;DHT22;64927;48.214;16.378;2023-04-24T02:01:43;16.70;57.00
76168;DHT22;64927;48.214;16.378;2023-04-24T02:04:08;16.60;57.30
76168;DHT22;64927;48.214;16.378;2023-04-24T02:06:34;16.50;57.70
76168;DHT22;64927;48.214;16.378;2023-04-24T02:09:00;16.50;57.90
76168;DHT22;64927;48.214;16.378;2023-04-24T02:11:26;16.50;58.70
76168;DHT22;64927;48.214;16.378;2023-04-24T02:13:52;16.50;59.10
76168;DHT22;64927;48.214;16.378;2023-04-24T02:16:18;16.40;59.00
76168;DHT22;64927;48.214;16.378;2023-04-24T02:18:46;16.20;59.30
76168;DHT22;64927;48.214;16.378;2023-04-24T02:21:12;16.30;59.60
76168;DHT22;64927;48.214;16.378;2023-04-24T02:23:37;16.10;59.50
76168;DHT22;64927;48.214;16.378;2023-04-24T02:26:03;16.00;60.10
76168;DHT22;64927;48.214;16.378;2023-04-24T02:28:29;15.90;60.00
76168;DHT22;64927;48.214;16.378;2023-04-24T02:30:57;16.00;59.60
76168;DHT22;64927;48.214;16.378;2023-04-24T02:33:23;16.00;59.60
76168;DHT22;64927;48.214;16.378;2023-04-24T02:35:49;16.00;59.60
76168;DHT22;64927;48.214;16.378;2023-04-24T02:38:15;15.90;59.50
76168;DHT22;64927;48.214;16.378;2023-04-24T02:40:40;15.70;60.30
76168;DHT22;64927;48.214;16.378;2023-04-24T02:43:06;15.60;60.70
76168;DHT22;64927;48.214;16.378;2023-04-24T02:45:32;15.70;60.70
76168;DHT22;64927;48.214;16.378;2023-04-24T02:48:01;15.70;60.80
76168;DHT22;64927;48.214;16.378;2023-04-24T02:50:26;15.70;60.60
76168;DHT22;64927;48.214;16.378;2023-04-24T02:52:52;15.70;60.80
76168;DHT22;64927;48.214;16.378;2023-04-24T02:55:18;15.60;60.90
76168;DHT22;64927;48.214;16.378;2023-04-24T02:57:45;15.60;61.20
76168;DHT22;64927;48.214;16.378;2023-04-24T03:00:11;15.40;61.60
76168;DHT22;64927;48.214;16.378;2023-04-24T03:02:37;15.50;61.50
76168;DHT22;64927;48.214;16.378;2023-04-24T03:05:06;15.50;61.40
76168;DHT22;64927;48.214;16.378;2023-04-24T03:07:33;15.50;61.60
76168;DHT22;64927;48.214;16.378;2023-04-24T03:09:58;15.40;61.60
76168;DHT22;64927;48.214;16.378;2023-04-24T03:12:24;15.50;61.60
76168;DHT22;64927;48.214;16.378;2023-04-24T03:14:50;15.50;61.40
76168;DHT22;64927;48.214;16.378;2023-04-24T03:17:18;15.60;61.30
76168;DHT22;64927;48.214;16.378;2023-04-24T03:19:43;15.50;61.50
76168;DHT22;64927;48.214;16.378;2023-04-24T03:22:09;15.50;61.40
76168;DHT22;64927;48.214;16.378;2023-04-24T03:24:37;15.50;61.40
76168;DHT22;64927;48.214;16.378;2023-04-24T03:27:03;15.50;61.50
76168;DHT22;64927;48.214;16.378;2023-04-24T03:29:28;15.50;61.50
76168;DHT22;64927;48.214;16.378;2023-04-24T03:31:54;15.40;61.90
76168;DHT22;64927;48.214;16.378;2023-04-24T03:34:20;15.40;62.40
76168;DHT22;64927;48.214;16.378;2023-04-24T03:36:46;15.40;62.40
76168;DHT22;64927;48.214;16.378;2023-04-24T03:39:14;15.40;62.20
76168;DHT22;64927;48.214;16.378;2023-04-24T03:41:39;15.50;62.00
76168;DHT22;64927;48.214;16.378;2023-04-24T03:44:05;15.50;62.10
76168;DHT22;64927;48.214;16.378;2023-04-24T03:46:31;15.60;62.00
76168;DHT22;64927;48.214;16.378;2023-04-24T03:48:57;15.50;62.20
76168;DHT22;64927;48.214;16.378;2023-04-24T03:51:22;15.50;62.30
76168;DHT22;64927;48.214;16.378;2023-04-24T03:53:50;15.60;62.20
76168;DHT22;64927;48.214;16.378;2023-04-24T03:56:16;15.60;62.10
76168;DHT22;64927;48.214;16.378;2023-04-24T03:58:42;15.60;62.30
76168;DHT22;64927;48.214;16.378;2023-04-24T04:01:08;15.60;62.40
76168;DHT22;64927;48.214;16.378;2023-04-24T04:03:33;15.60;62.30
76168;DHT22;64927;48.214;16.378;2023-04-24T04:06:02;15.80;62.10
76168;DHT22;64927;48.214;16.378;2023-04-24T04:08:27;15.80;62.10
76168;DHT22;64927;48.214;16.378;2023-04-24T04:10:53;15.80;62.00
76168;DHT22;64927;48.214;16.378;2023-04-24T04:13:19;15.80;62.00
76168;DHT22;64927;48.214;16.378;2023-04-24T04:15:44;15.90;61.90
76168;DHT22;64927;48.214;16.378;2023-04-24T04:18:12;15.90;61.70
76168;DHT22;64927;48.214;16.378;2023-04-24T04:20:38;16.00;61.60
76168;DHT22;64927;48.214;16.378;2023-04-24T04:23:06;15.90;61.70
76168;DHT22;64927;48.214;16.378;2023-04-24T04:25:32;15.90;61.40
76168;DHT22;64927;48.214;16.378;2023-04-24T04:27:58;15.90;61.40
76168;DHT22;64927;48.214;16.378;2023-04-24T04:30:24;16.00;61.20
76168;DHT22;64927;48.214;16.378;2023-04-24T04:32:51;16.00;61.30
76168;DHT22;64927;48.214;16.378;2023-04-24T04:35:17;16.10;61.20
76168;DHT22;64927;48.214;16.378;2023-04-24T04:37:42;16.10;60.90
76168;DHT22;64927;48.214;16.378;2023-04-24T04:40:08;16.10;60.60
76168;DHT22;64927;48.214;16.378;2023-04-24T04:42:37;16.10;60.70
76168;DHT22;64927;48.214;16.378;2023-04-24T04:45:07;16.10;60.60
76168;DHT22;64927;48.214;16.378;2023-04-24T04:47:34;16.10;60.50
76168;DHT22;64927;48.214;16.378;2023-04-24T04:50:02;16.00;60.70
76168;DHT22;64927;48.214;16.378;2023-04-24T04:52:29;16.00;60.70
76168;DHT22;64927;48.214;16.378;2023-04-24T04:54:57;16.00;61.40
76168;DHT22;64927;48.214;16.378;2023-04-24T04:57:25;16.00;60.50
76168;DHT22;64927;48.214;16.378;2023-04-24T04:59:53;16.00;60.30
76168;DHT22;64927;48.214;16.378;2023-04-24T05:02:19;16.00;60.40
76168;DHT22;64927;48.214;16.378;2023-04-24T05:04:45;16.00;60.40
76168;DHT22;64927;48.214;16.378;2023-04-24T05:07:11;16.20;60.20
76168;DHT22;64927;48.214;16.378;2023-04-24T05:09:37;16.20;59.90
76168;DHT22;64927;48.214;16.378;2023-04-24T05:12:05;16.30;59.70
76168;DHT22;64927;48.214;16.378;2023-04-24T05:14:31;16.40;59.10
76168;DHT22;64927;48.214;16.378;2023-04-24T05:16:57;16.50;58.80
76168;DHT22;64927;48.214;16.378;2023-04-24T05:19:22;16.60;58.40
76168;DHT22;64927;48.214;16.378;2023-04-24T05:21:48;16.80;58.10
76168;DHT22;64927;48.214;16.378;2023-04-24T05:24:18;17.00;57.40
76168;DHT22;64927;48.214;16.378;2023-04-24T05:26:44;17.00;56.90
76168;DHT22;64927;48.214;16.378;2023-04-24T05:29:09;17.10;56.60
76168;DHT22;64927;48.214;16.378;2023-04-24T05:31:35;17.20;56.10
76168;DHT22;64927;48.214;16.378;2023-04-24T05:34:03;17.30;55.80
76168;DHT22;64927;48.214;16.378;2023-04-24T05:36:29;17.40;55.60
76168;DHT22;64927;48.214;16.378;2023-04-24T05:38:54;17.30;56.10
76168;DHT22;64927;48.214;16.378;2023-04-24T05:41:20;17.30;55.70
76168;DHT22;64927;48.214;16.378;2023-04-24T05:43:47;17.40;55.70
76168;DHT22;64927;48.214;16.378;2023-04-24T05:46:15;17.50;55.30
76168;DHT22;64927;48.214;16.378;2023-04-24T05:48:41;17.40;55.50
76168;DHT22;64927;48.214;16.378;2023-04-24T05:51:07;17.20;55.70
76168;DHT22;64927;48.214;16.378;2023-04-24T05:53:32;17.20;56.00
76168;DHT22;64927;48.214;16.378;2023-04-24T05:55:58;17.30;55.40
76168;DHT22;64927;48.214;16.378;2023-04-24T05:58:24;17.40;54.90
76168;DHT22;64927;48.214;16.378;2023-04-24T06:00:49;17.50;54.50
76168;DHT22;64927;48.214;16.378;2023-04-24T06:03:15;17.40;54.40
76168;DHT22;64927;48.214;16.378;2023-04-24T06:05:41;17.40;54.80
76168;DHT22;64927;48.214;16.378;2023-04-24T06:08:06;17.50;54.70
76168;DHT22;64927;48.214;16.378;2023-04-24T06:10:32;17.40;54.50
76168;DHT22;64927;48.214;16.378;2023-04-24T06:12:57;17.40;54.90
76168;DHT22;64927;48.214;16.378;2023-04-24T06:15:28;17.30;54.90
76168;DHT22;64927;48.214;16.378;2023-04-24T06:17:54;17.40;55.00
76168;DHT22;64927;48.214;16.378;2023-04-24T06:20:19;17.60;54.30
76168;DHT22;64927;48.214;16.378;2023-04-24T06:22:45;17.70;53.90
76168;DHT22;64927;48.214;16.378;2023-04-24T06:25:11;17.80;53.90
76168;DHT22;64927;48.214;16.378;2023-04-24T06:27:39;17.80;53.30
76168;DHT22;64927;48.214;16.378;2023-04-24T06:30:05;17.90;53.00
76168;DHT22;64927;48.214;16.378;2023-04-24T06:32:31;17.80;52.70
76168;DHT22;64927;48.214;16.378;2023-04-24T06:34:57;17.90;52.90
76168;DHT22;64927;48.214;16.378;2023-04-24T06:37:23;18.10;52.30
76168;DHT22;64927;48.214;16.378;2023-04-24T06:39:49;18.20;52.40
76168;DHT22;64927;48.214;16.378;2023-04-24T06:42:15;18.20;51.80
76168;DHT22;64927;48.214;16.378;2023-04-24T06:44:45;18.20;51.80
76168;DHT22;64927;48.214;16.378;2023-04-24T06:47:11;18.20;51.80
76168;DHT22;64927;48.214;16.378;2023-04-24T06:49:39;18.30;51.90
76168;DHT22;64927;48.214;16.378;2023-04-24T06:52:05;18.40;51.60
76168;DHT22;64927;48.214;16.378;2023-04-24T06:54:32;18.50;51.10
76168;DHT22;64927;48.214;16.378;2023-04-24T06:56:58;18.60;51.00
76168;DHT22;64927;48.214;16.378;2023-04-24T06:59:28;18.80;50.80
76168;DHT22;64927;48.214;16.378;2023-04-24T07:01:57;18.90;50.10
76168;DHT22;64927;48.214;16.378;2023-04-24T07:04:23;18.90;49.70
76168;DHT22;64927;48.214;16.378;2023-04-24T07:06:51;18.90;49.60
76168;DHT22;64927;48.214;16.378;2023-04-24T07:09:19;18.90;49.50
76168;DHT22;64927;48.214;16.378;2023-04-24T07:11:45;18.90;49.20
76168;DHT22;64927;48.214;16.378;2023-04-24T07:14:13;18.80;49.30
76168;DHT22;64927;48.214;16.378;2023-04-24T07:16:42;18.80;49.10
76168;DHT22;64927;48.214;16.378;2023-04-24T07:19:08;18.90;49.40
76168;DHT22;64927;48.214;16.378;2023-04-24T07:21:33;18.80;49.30
76168;DHT22;64927;48.214;16.378;2023-04-24T07:23:59;18.80;49.50
76168;DHT22;64927;48.214;16.378;2023-04-24T07:26:26;18.70;49.60
76168;DHT22;64927;48.214;16.378;2023-04-24T07:28:52;18.80;49.80
76168;DHT22;64927;48.214;16.378;2023-04-24T07:31:20;18.80;50.00
76168;DHT22;64927;48.214;16.378;2023-04-24T07:33:46;18.80;49.70
76168;DHT22;64927;48.214;16.378;2023-04-24T07:36:12;18.90;49.70
76168;DHT22;64927;48.214;16.378;2023-04-24T07:38:42;19.00;49.90
76168;DHT22;64927;48.214;16.378;2023-04-24T07:41:08;18.90;50.30
76168;DHT22;64927;48.214;16.378;2023-04-24T07:43:34;18.80;50.60
76168;DHT22;64927;48.214;16.378;2023-04-24T07:45:59;18.90;50.70
76168;DHT22;64927;48.214;16.378;2023-04-24T07:48:25;18.90;50.70
76168;DHT22;64927;48.214;16.378;2023-04-24T07:50:53;18.90;50.60
76168;DHT22;64927;48.214;16.378;2023-04-24T07:53:19;18.90;50.90
76168;DHT22;64927;48.214;16.378;2023-04-24T07:55:51;18.80;51.10
76168;DHT22;64927;48.214;16.378;2023-04-24T07:58:17;18.70;52.60
76168;DHT22;64927;48.214;16.378;2023-04-24T08:00:43;18.60;51.50
76168;DHT22;64927;48.214;16.378;2023-04-24T08:03:08;18.70;51.50
76168;DHT22;64927;48.214;16.378;2023-04-24T08:05:34;18.80;52.20
76168;DHT22;64927;48.214;16.378;2023-04-24T08:08:04;18.70;53.20
76168;DHT22;64927;48.214;16.378;2023-04-24T08:10:30;18.60;54.00
76168;DHT22;64927;48.214;16.378;2023-04-24T08:12:56;18.40;54.50
76168;DHT22;64927;48.214;16.378;2023-04-24T08:15:21;18.20;56.30
76168;DHT22;64927;48.214;16.378;2023-04-24T08:17:47;18.10;58.90
76168;DHT22;64927;48.214;16.378;2023-04-24T08:20:15;18.10;57.30
76168;DHT22;64927;48.214;16.378;2023-04-24T08:22:42;18.10;57.10
76168;DHT22;64927;48.214;16.378;2023-04-24T08:25:09;18.20;56.90
76168;DHT22;64927;48.214;16.378;2023-04-24T08:27:35;18.20;55.80
76168;DHT22;64927;48.214;16.378;2023-04-24T08:30:03;18.10;55.70
76168;DHT22;64927;48.214;16.378;2023-04-24T08:32:28;18.10;55.70
76168;DHT22;64927;48.214;16.378;2023-04-24T08:34:55;18.10;55.40
76168;DHT22;64927;48.214;16.378;2023-04-24T08:37:22;18.00;55.50
76168;DHT22;64927;48.214;16.378;2023-04-24T08:39:51;17.80;54.60
76168;DHT22;64927;48.214;16.378;2023-04-24T08:42:18;17.70;55.00
76168;DHT22;64927;48.214;16.378;2023-04-24T08:44:44;17.50;55.50
76168;DHT22;64927;48.214;16.378;2023-04-24T08:47:11;17.40;56.30
76168;DHT22;64927;48.214;16.378;2023-04-24T08:49:38;17.40;56.10
76168;DHT22;64927;48.214;16.378;2023-04-24T08:52:05;17.40;56.80
76168;DHT22;64927;48.214;16.378;2023-04-24T08:54:31;17.20;58.40
76168;DHT22;64927;48.214;16.378;2023-04-24T08:57:01;16.90;60.90
76168;DHT22;64927;48.214;16.378;2023-04-24T08:59:29;16.60;62.90
76168;DHT22;64927;48.214;16.378;2023-04-24T09:01:55;16.40;64.20
76168;DHT22;64927;48.214;16.378;2023-04-24T09:04:24;16.10;66.10
76168;DHT22;64927;48.214;16.378;2023-04-24T09:06:52;15.80;66.10
76168;DHT22;64927;48.214;16.378;2023-04-24T09:09:21;15.60;67.30
76168;DHT22;64927;48.214;16.378;2023-04-24T09:11:49;15.60;66.80
76168;DHT22;64927;48.214;16.378;2023-04-24T09:14:16;15.70;67.40
76168;DHT22;64927;48.214;16.378;2023-04-24T09:16:44;15.70;67.50
76168;DHT22;64927;48.214;16.378;2023-04-24T09:19:10;15.60;67.70
76168;DHT22;64927;48.214;16.378;2023-04-24T09:21:36;15.60;66.90
76168;DHT22;64927;48.214;16.378;2023-04-24T09:24:06;15.50;67.10
76168;DHT22;64927;48.214;16.378;2023-04-24T09:26:35;15.50;66.80
76168;DHT22;64927;48.214;16.378;2023-04-24T09:29:01;15.40;67.20
76168;DHT22;64927;48.214;16.378;2023-04-24T09:31:28;15.50;66.50
76168;DHT22;64927;48.214;16.378;2023-04-24T09:34:01;15.50;65.90
76168;DHT22;64927;48.214;16.378;2023-04-24T09:36:33;15.40;65.50
76168;DHT22;64927;48.214;16.378;2023-04-24T09:39:03;15.50;66.50
76168;DHT22;64927;48.214;16.378;2023-04-24T09:41:32;15.50;65.60
76168;DHT22;64927;48.214;16.378;2023-04-24T09:44:11;15.50;65.00
76168;DHT22;64927;48.214;16.378;2023-04-24T09:46:37;15.50;64.20
76168;DHT22;64927;48.214;16.378;2023-04-24T09:49:14;15.50;64.80
76168;DHT22;64927;48.214;16.378;2023-04-24T09:51:44;15.50;64.10
76168;DHT22;64927;48.214;16.378;2023-04-24T09:54:21;15.50;64.30
76168;DHT22;64927;48.214;16.378;2023-04-24T09:56:52;15.40;64.20
76168;DHT22;64927;48.214;16.378;2023-04-24T09:59:20;15.50;63.80
76168;DHT22;64927;48.214;16.378;2023-04-24T10:01:46;15.50;64.10
76168;DHT22;64927;48.214;16.378;2023-04-24T10:04:28;15.60;63.90
76168;DHT22;64927;48.214;16.378;2023-04-24T10:06:57;15.50;63.40
76168;DHT22;64927;48.214;16.378;2023-04-24T10:09:25;15.50;63.10
76168;DHT22;64927;48.214;16.378;2023-04-24T10:11:54;15.40;63.30
76168;DHT22;64927;48.214;16.378;2023-04-24T10:14:24;15.50;63.30
76168;DHT22;64927;48.214;16.378;2023-04-24T10:16:53;15.50;62.80
76168;DHT22;64927;48.214;16.378;2023-04-24T10:19:18;15.60;63.60
76168;DHT22;64927;48.214;16.378;2023-04-24T10:21:45;15.50;62.90
76168;DHT22;64927;48.214;16.378;2023-04-24T10:24:16;15.50;63.30
76168;DHT22;64927;48.214;16.378;2023-04-24T10:26:46;15.50;63.10
76168;DHT22;64927;48.214;16.378;2023-04-24T10:29:16;15.60;63.20
76168;DHT22;64927;48.214;16.378;2023-04-24T10:31:46;15.50;63.60
76168;DHT22;64927;48.214;16.378;2023-04-24T10:34:15;15.50;64.10
76168;DHT22;64927;48.214;16.378;2023-04-24T10:36:50;15.60;63.20
76168;DHT22;64927;48.214;16.378;2023-04-24T10:39:20;15.60;63.20
76168;DHT22;64927;48.214;16.378;2023-04-24T10:41:48;15.70;63.20
76168;DHT22;64927;48.214;16.378;2023-04-24T10:44:15;15.60;63.90
76168;DHT22;64927;48.214;16.378;2023-04-24T10:46:53;15.60;63.70
76168;DHT22;64927;48.214;16.378;2023-04-24T10:49:30;15.70;63.10
76168;DHT22;64927;48.214;16.378;2023-04-24T10:52:01;15.70;63.30
76168;DHT22;64927;48.214;16.378;2023-04-24T10:54:35;15.60;63.20
76168;DHT22;64927;48.214;16.378;2023-04-24T11:02:15;15.40;64.10
76168;DHT22;64927;48.214;16.378;2023-04-24T11:04:41;15.40;64.70
76168;DHT22;64927;48.214;16.378;2023-04-24T11:07:13;15.50;64.40
76168;DHT22;64927;48.214;16.378;2023-04-24T11:09:39;15.50;64.50
76168;DHT22;64927;48.214;16.378;2023-04-24T11:12:10;15.50;64.70
76168;DHT22;64927;48.214;16.378;2023-04-24T11:15:17;15.50;65.10
76168;DHT22;64927;48.214;16.378;2023-04-24T11:17:55;15.30;65.60
76168;DHT22;64927;48.214;16.378;2023-04-24T11:20:23;15.30;66.50
76168;DHT22;64927;48.214;16.378;2023-04-24T11:22:52;15.30;66.60
76168;DHT22;64927;48.214;16.378;2023-04-24T11:25:22;15.30;66.80
76168;DHT22;64927;48.214;16.378;2023-04-24T11:28:03;15.30;66.90
76168;DHT22;64927;48.214;16.378;2023-04-24T11:30:29;15.30;67.00
76168;DHT22;64927;48.214;16.378;2023-04-24T11:33:04;15.40;67.60
76168;DHT22;64927;48.214;16.378;2023-04-24T11:35:35;15.30;68.00
76168;DHT22;64927;48.214;16.378;2023-04-24T11:38:04;15.40;68.30
76168;DHT22;64927;48.214;16.378;2023-04-24T11:40:30;15.40;68.70
76168;DHT22;64927;48.214;16.378;2023-04-24T11:42:56;15.40;69.00
76168;DHT22;64927;48.214;16.378;2023-04-24T11:45:29;15.40;69.30
76168;DHT22;64927;48.214;16.378;2023-04-24T11:47:55;15.60;68.50
76168;DHT22;64927;48.214;16.378;2023-04-24T11:50:25;15.60;68.40
76168;DHT22;64927;48.214;16.378;2023-04-24T11:52:52;15.80;68.40
76168;DHT22;64927;48.214;16.378;2023-04-24T11:57:49;15.80;67.80
76168;DHT22;64927;48.214;16.378;2023-04-24T12:00:29;15.70;67.40
76168;DHT22;64927;48.214;16.378;2023-04-24T12:03:11;15.70;67.70
76168;DHT22;64927;48.214;16.378;2023-04-24T12:05:38;15.80;68.20
76168;DHT22;64927;48.214;16.378;2023-04-24T12:08:04;15.90;68.10
76168;DHT22;64927;48.214;16.378;2023-04-24T12:10:35;15.90;68.30
76168;DHT22;64927;48.214;16.378;2023-04-24T12:13:01;16.10;68.20
76168;DHT22;64927;48.214;16.378;2023-04-24T12:15:27;16.10;68.20
76168;DHT22;64927;48.214;16.378;2023-04-24T12:17:54;16.20;68.20
76168;DHT22;64927;48.214;16.378;2023-04-24T12:20:30;16.30;67.80
76168;DHT22;64927;48.214;16.378;2023-04-24T12:22:57;16.50;68.20
76168;DHT22;64927;48.214;16.378;2023-04-24T12:25:29;16.60;66.50
76168;DHT22;64927;48.214;16.378;2023-04-24T12:28:08;16.70;66.70
76168;DHT22;64927;48.214;16.378;2023-04-24T12:30:47;16.80;66.50
76168;DHT22;64927;48.214;16.378;2023-04-24T12:33:18;16.80;66.00
76168;DHT22;64927;48.214;16.378;2023-04-24T12:35:44;16.70;65.20
76168;DHT22;64927;48.214;16.378;2023-04-24T12:38:13;16.80;65.80
76168;DHT22;64927;48.214;16.378;2023-04-24T12:40:43;17.00;65.40
76168;DHT22;64927;48.214;16.378;2023-04-24T12:43:18;17.10;65.30
76168;DHT22;64927;48.214;16.378;2023-04-24T12:45:45;17.30;65.10
76168;DHT22;64927;48.214;16.378;2023-04-24T12:48:13;17.10;64.70
76168;DHT22;64927;48.214;16.378;2023-04-24T12:50:42;17.10;64.40
76168;DHT22;64927;48.214;16.378;2023-04-24T12:53:08;17.10;64.20
76168;DHT22;64927;48.214;16.378;2023-04-24T12:55:34;17.10;64.00
76168;DHT22;64927;48.214;16.378;2023-04-24T12:58:02;17.10;64.80
76168;DHT22;64927;48.214;16.378;2023-04-24T13:00:28;17.20;64.50
76168;DHT22;64927;48.214;16.378;2023-04-24T13:02:56;17.30;64.50
76168;DHT22;64927;48.214;16.378;2023-04-24T13:05:22;17.20;64.30
76168;DHT22;64927;48.214;16.378;2023-04-24T13:07:48;17.20;63.90
76168;DHT22;64927;48.214;16.378;2023-04-24T13:10:16;17.30;64.50
76168;DHT22;64927;48.214;16.378;2023-04-24T13:12:42;17.20;64.50
76168;DHT22;64927;48.214;16.378;2023-04-24T13:15:10;17.30;64.90
76168;DHT22;64927;48.214;16.378;2023-04-24T13:17:36;17.40;64.70
76168;DHT22;64927;48.214;16.378;2023-04-24T13:20:02;17.30;64.50
76168;DHT22;64927;48.214;16.378;2023-04-24T13:22:28;17.40;64.10
76168;DHT22;64927;48.214;16.378;2023-04-24T13:24:53;17.50;63.70
76168;DHT22;64927;48.214;16.378;2023-04-24T13:27:20;17.30;63.50
76168;DHT22;64927;48.214;16.378;2023-04-24T13:29:45;17.20;63.80
76168;DHT22;64927;48.214;16.378;2023-04-24T13:32:11;17.00;63.50
76168;DHT22;64927;48.214;16.378;2023-04-24T13:34:37;16.90;65.10
76168;DHT22;64927;48.214;16.378;2023-04-24T13:37:03;16.70;64.70
76168;DHT22;64927;48.214;16.378;2023-04-24T13:39:30;16.60;66.20
76168;DHT22;64927;48.214;16.378;2023-04-24T13:41:56;16.80;65.40
76168;DHT22;64927;48.214;16.378;2023-04-24T13:44:24;16.70;65.10
76168;DHT22;64927;48.214;16.378;2023-04-24T13:46:57;16.70;65.30
76168;DHT22;64927;48.214;16.378;2023-04-24T13:49:24;16.70;65.30
76168;DHT22;64927;48.214;16.378;2023-04-24T13:51:54;16.80;65.20
76168;DHT22;64927;48.214;16.378;2023-04-24T13:54:20;16.90;65.30
76168;DHT22;64927;48.214;16.378;2023-04-24T13:56:47;16.80;65.60
76168;DHT22;64927;48.214;16.378;2023-04-24T13:59:13;16.80;66.40
76168;DHT22;64927;48.214;16.378;2023-04-24T14:01:39;16.70;66.80
76168;DHT22;64927;48.214;16.378;2023-04-24T14:04:04;16.60;66.50
76168;DHT22;64927;48.214;16.378;2023-04-24T14:06:30;16.70;66.20
76168;DHT22;64927;48.214;16.378;2023-04-24T14:08:56;16.60;66.80
76168;DHT22;64927;48.214;16.378;2023-04-24T14:11:24;16.30;67.60
76168;DHT22;64927;48.214;16.378;2023-04-24T14:13:54;16.10;68.30
76168;DHT22;64927;48.214;16.378;2023-04-24T14:16:22;15.90;68.80
76168;DHT22;64927;48.214;16.378;2023-04-24T14:18:47;15.80;69.00
76168;DHT22;64927;48.214;16.378;2023-04-24T14:21:13;15.90;69.70
76168;DHT22;64927;48.214;16.378;2023-04-24T14:23:39;16.00;69.70
76168;DHT22;64927;48.214;16.378;2023-04-24T14:26:04;16.00;70.20
76168;DHT22;64927;48.214;16.378;2023-04-24T14:28:34;16.10;71.40
76168;DHT22;64927;48.214;16.378;2023-04-24T14:31:00;16.00;69.70
76168;DHT22;64927;48.214;16.378;2023-04-24T14:33:28;16.10;70.10
76168;DHT22;64927;48.214;16.378;2023-04-24T14:35:54;16.10;69.60
76168;DHT22;64927;48.214;16.378;2023-04-24T14:38:20;16.20;71.20
76168;DHT22;64927;48.214;16.378;2023-04-24T14:40:48;16.20;69.50
76168;DHT22;64927;48.214;16.378;2023-04-24T14:43:16;16.20;68.90
76168;DHT22;64927;48.214;16.378;2023-04-24T14:45:41;16.10;70.20
76168;DHT22;64927;48.214;16.378;2023-04-24T14:48:07;15.90;70.10
76168;DHT22;64927;48.214;16.378;2023-04-24T14:50:33;16.00;70.30
76168;DHT22;64927;48.214;16.378;2023-04-24T14:52:59;16.10;69.70
76168;DHT22;64927;48.214;16.378;2023-04-24T14:55:27;16.20;68.70
76168;DHT22;64927;48.214;16.378;2023-04-24T14:57:53;16.10;68.50
76168;DHT22;64927;48.214;16.378;2023-04-24T15:00:19;16.00;70.20
76168;DHT22;64927;48.214;16.378;2023-04-24T15:02:45;16.00;69.00
76168;DHT22;64927;48.214;16.378;2023-04-24T15:05:11;16.00;69.20
76168;DHT22;64927;48.214;16.378;2023-04-24T15:07:37;16.00;69.20
76168;DHT22;64927;48.214;16.378;2023-04-24T15:10:07;16.10;68.70
76168;DHT22;64927;48.214;16.378;2023-04-24T15:12:33;16.10;68.20
76168;DHT22;64927;48.214;16.378;2023-04-24T15:14:59;16.10;68.60
76168;DHT22;64927;48.214;16.378;2023-04-24T15:17:27;16.00;68.70
76168;DHT22;64927;48.214;16.378;2023-04-24T15:19:53;16.10;69.00
76168;DHT22;64927;48.214;16.378;2023-04-24T15:22:19;16.10;69.30
76168;DHT22;64927;48.214;16.378;2023-04-24T15:24:44;16.10;69.20